This is the latest recevied weather packets stored in our database for station/object KI4HRG. If no packets are shown the sender has not sent any weather packets the latest 10 day(s).
| Time | Temp. | Humidity | Pressure | Rain* | Wind** | Luminosity | Snow |
|---|---|---|---|---|---|---|---|
| 1778006660 | 23.33° C | 61% | 1013.7 hPa | 0 mm | - | 789 W/m² | - |
| 1778006357 | 23.89° C | 60% | 1013.7 hPa | 0 mm | - | 819 W/m² | - |
| 1778006054 | 23.89° C | 60% | 1013.7 hPa | 0 mm | - | 250 W/m² | - |
| 1778005750 | 24.44° C | 59% | 1013.9 hPa | 0 mm | - | 233 W/m² | - |
| 1778005447 | 23.89° C | 60% | 1014 hPa | 0 mm | - | 819 W/m² | - |
| 1778005143 | 23.33° C | 61% | 1014 hPa | 0 mm | - | 807 W/m² | - |
| 1778004841 | 22.78° C | 63% | 1013.8 hPa | 0 mm | - | 788 W/m² | - |
| 1778004537 | 23.33° C | 63% | 1014 hPa | 0 mm | - | 242 W/m² | - |
| 1778004234 | 23.33° C | 62% | 1014.2 hPa | 0 mm | - | 429 W/m² | - |
| 1778003931 | 24.44° C | 60% | 1014.1 hPa | 0 mm | - | 510 W/m² | - |
| 1778003627 | 23.33° C | 61% | 1014.2 hPa | 0 mm | - | 485 W/m² | - |
| 1778003323 | 23.33° C | 63% | 1014.3 hPa | 0 mm | - | 631 W/m² | - |
| 1778003021 | 22.78° C | 64% | 1014.4 hPa | 0 mm | - | 385 W/m² | - |
| 1778002717 | 22.78° C | 61% | 1014.7 hPa | 0 mm | - | 370 W/m² | - |
| 1778002414 | 23.33° C | 62% | 1014.3 hPa | 0 mm | - | 425 W/m² | - |
| 1778002111 | 23.89° C | 59% | 1014.6 hPa | 0 mm | - | 317 W/m² | - |
| 1778001809 | 23.33° C | 59% | 1014.7 hPa | 0 mm | - | 454 W/m² | - |
| 1778001508 | 24.44° C | 57% | 1014.4 hPa | 0 mm | - | 355 W/m² | - |
| 1778001205 | 23.89° C | 60% | 1014.7 hPa | 0 mm | - | 669 W/m² | - |
| 1778000901 | 22.22° C | 63% | 1014.7 hPa | 0 mm | - | 757 W/m² | - |
| 1778000598 | 23.89° C | 58% | 1014.6 hPa | 0 mm | - | 557 W/m² | - |
| 1778000294 | 23.33° C | 59% | 1014.9 hPa | 0 mm | - | 318 W/m² | - |
| 1777999990 | 23.89° C | 62% | 1014.9 hPa | 0 mm | - | 759 W/m² | - |
| 1777999685 | 23.33° C | 62% | 1014.9 hPa | 0 mm | - | 747 W/m² | - |
| 1777999383 | 23.33° C | 61% | 1015.1 hPa | 0 mm | - | 706 W/m² | - |
* Rain latest hour (hover to see other rain measurements)
** Current wind speed in m/s (hover to see current wind gust speed)